Terminal Aerodrome Forecast
Issued by NWS

Home | Current Version | Previous Version | Text Only | Print | Product List | Glossary On
Versions: 1 2 3 4 5 6 7 8 9 10 11 12 13 14 15 16 17 18 19 20 21 22 23 24
000
FTUS46 KPDT 090027 AAA
TAFALW
TAF AMD
KALW 090027Z 0900/0924 VRB04KT 1SM -SN BR OVC018
     FM090100 20005KT 1/2SM SN FZFG VV004
     FM090800 20006KT 5SM -SHSNPL SCT010 BKN025
     FM092100 18005KT 3SM -SN BR SCT005 OVC008=

USA.gov is the U.S. government's official web portal to all federal, state and local government web resources and services.